Time;durP1;ratioP1;P1;durP2;ratioP2;P2;SDS_P1;SDS_P2;PMS_P1;PMS_P2;Temp;Humidity;BMP_temperature;BMP_pressure;BME280_temperature;BME280_humidity;BME280_pressure;Samples;Min_cycle;Max_cycle;Signal;HPM_P1;HPM_P2
2022/02/14 00:01:53;;;;;;;13.97;5.67;;;12.60;94.20;;;;;;5051449;28;20393;-65
2022/02/14 00:04:19;;;;;;;15.13;5.90;;;12.60;94.40;;;;;;5067971;28;20404;-66
2022/02/14 00:06:45;;;;;;;18.73;5.80;;;12.50;94.60;;;;;;5069748;28;20892;-64
2022/02/14 00:09:10;;;;;;;16.55;6.35;;;12.50;94.70;;;;;;5069243;28;20922;-64
2022/02/14 00:11:36;;;;;;;17.87;6.00;;;12.40;95.30;;;;;;5068545;28;20448;-67
2022/02/14 00:14:01;;;;;;;15.23;6.07;;;12.40;95.20;;;;;;5069460;28;20399;-66
2022/02/14 00:16:27;;;;;;;14.52;6.05;;;12.30;95.60;;;;;;5067881;28;20504;-65
2022/02/14 00:18:53;;;;;;;19.70;5.80;;;12.30;96.00;;;;;;5067931;28;20457;-65
2022/02/14 00:21:18;;;;;;;16.60;6.00;;;12.20;96.20;;;;;;5068549;28;20502;-64
2022/02/14 00:23:44;;;;;;;15.65;5.90;;;12.10;96.60;;;;;;5067623;28;20652;-65
2022/02/14 00:26:10;;;;;;;15.87;6.20;;;12.10;96.80;;;;;;5068353;28;20403;-66
2022/02/14 00:28:35;;;;;;;15.70;6.30;;;12.00;97.20;;;;;;5066610;28;20399;-66
2022/02/14 00:31:03;;;;;;;18.23;6.43;;;12.00;97.30;;;;;;5068113;28;20446;-65
2022/02/14 00:33:29;;;;;;;20.75;6.50;;;12.00;97.30;;;;;;5067930;28;20439;-67
2022/02/14 00:35:54;;;;;;;16.63;6.10;;;11.90;97.20;;;;;;5069882;28;20510;-68
2022/02/14 00:38:21;;;;;;;16.30;6.10;;;11.90;97.30;;;;;;5068006;28;20408;-66
2022/02/14 00:40:46;;;;;;;15.02;6.00;;;11.90;97.30;;;;;;5066989;28;20892;-66
2022/02/14 00:43:13;;;;;;;16.38;6.00;;;12.00;97.20;;;;;;5068142;28;20411;-66
2022/02/14 00:45:39;;;;;;;14.07;5.90;;;12.00;97.00;;;;;;5067962;28;20461;-64
2022/02/14 00:48:05;;;;;;;19.67;6.00;;;12.00;96.80;;;;;;5067339;28;20892;-65
2022/02/14 00:50:31;;;;;;;14.13;5.88;;;12.10;96.60;;;;;;5069013;28;20490;-66
2022/02/14 00:52:57;;;;;;;15.27;5.70;;;12.10;96.40;;;;;;5067121;28;20423;-64
2022/02/14 00:55:23;;;;;;;12.68;5.85;;;12.10;96.10;;;;;;5069277;28;20555;-69
2022/02/14 00:57:49;;;;;;;14.82;5.82;;;12.20;95.80;;;;;;5068743;28;20404;-66
2022/02/14 01:00:18;;;;;;;13.37;5.83;;;12.30;95.60;;;;;;5067577;28;20405;-67
2022/02/14 01:02:44;;;;;;;15.65;5.60;;;12.30;95.70;;;;;;5067359;28;20411;-65
2022/02/14 01:05:11;;;;;;;15.80;5.97;;;12.30;95.20;;;;;;5068566;28;20544;-66
2022/02/14 01:07:37;;;;;;;17.35;6.20;;;12.30;95.00;;;;;;5067135;28;20408;-67
2022/02/14 01:10:05;;;;;;;13.43;5.93;;;12.40;94.90;;;;;;5067881;28;20412;-66
2022/02/14 01:12:32;;;;;;;15.40;5.82;;;12.40;94.70;;;;;;5066900;28;20415;-67
2022/02/14 01:14:58;;;;;;;15.23;5.88;;;12.50;94.70;;;;;;5067641;28;20412;-66
2022/02/14 01:17:23;;;;;;;14.75;5.90;;;12.50;94.50;;;;;;5064262;28;21324;-66
2022/02/14 01:19:49;;;;;;;15.47;5.87;;;12.60;94.30;;;;;;5068135;28;20960;-67
2022/02/14 01:22:15;;;;;;;15.67;5.30;;;12.60;94.10;;;;;;5067270;28;20411;-67
2022/02/14 01:24:41;;;;;;;14.40;5.80;;;12.70;94.30;;;;;;5068548;28;20875;-67
2022/02/14 01:27:07;;;;;;;16.50;5.60;;;12.70;94.00;;;;;;5066911;28;20494;-67
2022/02/14 01:29:34;;;;;;;15.25;6.00;;;12.70;93.90;;;;;;5067075;28;20482;-67
2022/02/14 01:32:00;;;;;;;17.20;5.93;;;12.70;93.70;;;;;;5068428;28;20885;-67
2022/02/14 01:34:26;;;;;;;13.57;5.85;;;12.80;93.60;;;;;;5065518;28;20488;-68
2022/02/14 01:36:52;;;;;;;17.05;5.60;;;12.80;93.70;;;;;;5067659;28;20891;-67
2022/02/14 01:39:18;;;;;;;16.25;5.70;;;12.80;93.60;;;;;;5066657;28;20416;-70
2022/02/14 01:41:44;;;;;;;16.25;6.20;;;12.80;93.70;;;;;;5068691;28;20847;-67
2022/02/14 01:44:43;;;;;;;18.95;6.20;;;12.90;93.40;;;;;;5049057;28;20537;-67
2022/02/14 01:47:12;;;;;;;15.57;5.68;;;12.90;93.20;;;;;;5062225;28;20411;-65
2022/02/14 01:49:38;;;;;;;16.23;5.50;;;12.90;93.30;;;;;;5066768;28;20478;-67
2022/02/14 01:52:06;;;;;;;14.35;5.63;;;12.90;93.00;;;;;;5066114;28;20407;-68
2022/02/14 01:54:32;;;;;;;22.42;6.18;;;12.90;93.30;;;;;;5065584;28;20498;-66
2022/02/14 01:56:58;;;;;;;15.43;6.27;;;12.90;93.10;;;;;;5068361;28;20411;-67
2022/02/14 01:59:23;;;;;;;15.48;6.10;;;12.90;93.30;;;;;;5048437;28;20409;-66
2022/02/14 02:01:49;;;;;;;16.03;5.90;;;12.90;92.90;;;;;;5066908;28;20403;-67
2022/02/14 02:04:14;;;;;;;15.20;5.67;;;12.90;92.90;;;;;;5065505;28;20411;-67
2022/02/14 02:06:44;;;;;;;17.98;6.45;;;13.00;93.00;;;;;;5068076;28;20451;-67
2022/02/14 02:09:10;;;;;;;16.02;6.22;;;13.00;93.00;;;;;;5065679;28;20431;-67
2022/02/14 02:14:21;;;;;;;15.17;6.10;;;13.00;93.00;;;;;;5048597;28;20971;-65
2022/02/14 02:16:47;;;;;;;15.33;5.47;;;13.00;92.80;;;;;;5066999;28;20929;-66
2022/02/14 02:19:13;;;;;;;13.95;5.50;;;13.00;92.80;;;;;;5066104;28;20399;-67
2022/02/14 02:21:38;;;;;;;17.03;5.60;;;13.00;92.60;;;;;;5066977;28;20405;-66
2022/02/14 02:24:09;;;;;;;16.27;5.30;;;13.00;92.80;;;;;;5067064;28;20411;-67
2022/02/14 02:26:34;;;;;;;13.27;5.10;;;13.00;92.80;;;;;;5067225;28;20764;-67
2022/02/14 02:29:00;;;;;;;12.82;4.70;;;13.00;92.60;;;;;;5066672;28;20425;-66
2022/02/14 02:31:26;;;;;;;15.35;4.80;;;13.10;92.60;;;;;;5071431;28;20482;-66
2022/02/14 02:33:52;;;;;;;11.17;4.50;;;13.10;92.50;;;;;;5071349;28;20498;-67
2022/02/14 02:36:17;;;;;;;12.60;4.65;;;13.10;92.40;;;;;;5071094;28;20451;-67
2022/02/14 02:38:43;;;;;;;12.40;4.60;;;13.10;92.50;;;;;;5067611;28;20845;-65
2022/02/14 02:41:10;;;;;;;12.83;4.60;;;13.10;92.40;;;;;;5070935;28;20403;-66
2022/02/14 02:43:35;;;;;;;12.93;4.70;;;13.10;92.30;;;;;;5069662;28;20473;-65
2022/02/14 02:46:01;;;;;;;13.20;4.17;;;13.10;92.40;;;;;;5070830;28;20516;-66
2022/02/14 02:48:27;;;;;;;10.87;4.03;;;13.10;92.30;;;;;;5069080;28;20899;-67
2022/02/14 02:51:02;;;;;;;10.68;4.07;;;13.10;92.20;;;;;;5069717;28;20915;-66
2022/02/14 02:53:32;;;;;;;12.45;4.35;;;13.10;92.40;;;;;;5070571;28;20430;-65
2022/02/14 02:55:59;;;;;;;16.17;4.47;;;13.10;92.30;;;;;;5070017;28;20922;-65
2022/02/14 02:58:25;;;;;;;17.63;4.30;;;13.10;92.00;;;;;;5070039;28;20416;-66
2022/02/14 03:00:51;;;;;;;13.27;4.40;;;13.20;92.20;;;;;;5067982;28;20407;-67
2022/02/14 03:03:17;;;;;;;8.95;3.90;;;13.20;92.30;;;;;;5049733;28;20400;-67
2022/02/14 03:05:43;;;;;;;12.00;4.10;;;13.20;92.40;;;;;;5069949;28;20407;-67
2022/02/14 03:08:08;;;;;;;11.02;3.80;;;13.20;92.20;;;;;;5069070;28;20412;-66
2022/02/14 03:10:34;;;;;;;10.27;4.00;;;13.20;91.90;;;;;;5071248;28;20498;-66
2022/02/14 03:12:59;;;;;;;13.07;4.07;;;13.20;91.90;;;;;;5068645;28;20911;-68
2022/02/14 03:15:26;;;;;;;13.00;3.85;;;13.20;92.00;;;;;;5053795;28;20776;-65
2022/02/14 03:17:52;;;;;;;11.13;3.80;;;13.20;91.80;;;;;;5052034;28;20430;-65
2022/02/14 03:20:18;;;;;;;10.10;3.63;;;13.20;91.80;;;;;;5066664;28;20758;-66
2022/02/14 03:22:44;;;;;;;10.97;3.93;;;13.20;92.20;;;;;;5069148;28;20419;-63
2022/02/14 03:25:09;;;;;;;12.57;3.80;;;13.20;92.00;;;;;;5069473;28;20925;-65
2022/02/14 03:27:35;;;;;;;9.80;3.50;;;13.20;91.90;;;;;;5068525;28;20430;-69
2022/02/14 03:30:00;;;;;;;12.93;3.60;;;13.20;91.90;;;;;;5068599;28;20570;-68
2022/02/14 03:32:26;;;;;;;13.10;3.50;;;13.20;91.90;;;;;;5069427;28;20430;-68
2022/02/14 03:34:52;;;;;;;12.43;3.50;;;13.20;92.30;;;;;;5070598;28;20418;-66
2022/02/14 03:37:17;;;;;;;10.77;3.83;;;13.30;92.10;;;;;;5069697;28;20887;-68
2022/02/14 03:39:43;;;;;;;10.03;3.87;;;13.20;92.00;;;;;;5068709;28;20403;-69
2022/02/14 03:42:09;;;;;;;12.38;3.50;;;13.20;91.80;;;;;;5067844;28;20957;-66
2022/02/14 03:44:35;;;;;;;11.23;3.40;;;13.10;91.90;;;;;;5051695;28;20414;-66
2022/02/14 03:47:00;;;;;;;10.77;3.87;;;13.10;92.20;;;;;;5069342;28;20396;-66
2022/02/14 03:49:26;;;;;;;11.33;3.70;;;13.10;92.10;;;;;;5050663;28;20422;-69
2022/02/14 03:51:52;;;;;;;8.25;3.50;;;13.10;92.40;;;;;;5069416;28;20397;-66
2022/02/14 03:54:17;;;;;;;9.13;3.40;;;13.10;92.00;;;;;;5069895;28;20430;-67
2022/02/14 03:56:43;;;;;;;9.77;3.30;;;13.10;91.90;;;;;;5068544;28;20431;-67
2022/02/14 03:59:08;;;;;;;9.05;3.40;;;13.10;91.90;;;;;;5082586;28;20423;-66
2022/02/14 04:01:34;;;;;;;12.17;3.60;;;13.20;91.90;;;;;;5069429;28;20768;-65
2022/02/14 04:04:00;;;;;;;10.23;3.27;;;13.20;92.10;;;;;;5066808;28;20422;-66
2022/02/14 04:06:26;;;;;;;8.10;3.47;;;13.20;92.00;;;;;;5070031;28;20498;-68
2022/02/14 04:08:51;;;;;;;9.63;3.47;;;13.20;91.80;;;;;;5069318;28;20459;-67
2022/02/14 04:11:17;;;;;;;9.82;3.50;;;13.20;91.80;;;;;;5069919;28;20403;-66
2022/02/14 04:13:42;;;;;;;11.25;3.35;;;13.20;91.70;;;;;;5068764;28;20495;-66
2022/02/14 04:16:08;;;;;;;8.93;3.30;;;13.20;91.70;;;;;;5068879;28;20507;-66
2022/02/14 04:18:34;;;;;;;7.22;3.42;;;13.30;91.60;;;;;;5068849;28;20424;-66
2022/02/14 04:20:59;;;;;;;11.82;3.10;;;13.30;91.60;;;;;;5050971;28;20413;-67
2022/02/14 04:23:25;;;;;;;8.83;3.10;;;13.30;91.80;;;;;;5068775;28;20407;-66
2022/02/14 04:25:52;;;;;;;10.00;3.47;;;13.30;91.80;;;;;;5068759;28;20411;-65
2022/02/14 04:28:18;;;;;;;9.00;3.10;;;13.20;91.80;;;;;;5068325;28;20431;-68
2022/02/14 04:30:44;;;;;;;9.50;3.03;;;13.20;91.70;;;;;;5051417;28;20419;-67
2022/02/14 04:33:10;;;;;;;11.95;3.22;;;13.20;91.70;;;;;;5063296;28;20899;-66
2022/02/14 04:35:36;;;;;;;10.03;3.13;;;13.20;91.90;;;;;;5066497;28;20885;-66
2022/02/14 04:38:01;;;;;;;6.72;2.88;;;13.20;91.80;;;;;;5066449;28;20403;-67
2022/02/14 04:40:35;;;;;;;9.80;3.20;;;13.20;91.70;;;;;;5050762;28;20469;-66
2022/02/14 04:43:01;;;;;;;11.93;3.10;;;13.20;91.90;;;;;;5066980;28;20426;-68
2022/02/14 04:45:28;;;;;;;7.03;2.90;;;13.20;91.70;;;;;;5067653;28;20816;-68
2022/02/14 04:47:55;;;;;;;12.05;3.00;;;13.30;91.80;;;;;;5050972;28;20403;-67
2022/02/14 04:50:21;;;;;;;9.13;3.28;;;13.20;91.80;;;;;;5069801;28;20403;-67
2022/02/14 04:52:47;;;;;;;8.35;3.28;;;13.20;91.70;;;;;;5066990;28;20411;-67
2022/02/14 04:55:13;;;;;;;7.23;2.80;;;13.20;91.60;;;;;;5051648;28;20419;-67
2022/02/14 04:57:38;;;;;;;9.50;3.00;;;13.20;91.80;;;;;;5066913;28;20740;-65
2022/02/14 05:00:08;;;;;;;6.75;3.17;;;13.20;91.80;;;;;;5050091;28;20504;-66
2022/02/14 05:02:33;;;;;;;12.05;3.05;;;13.20;91.90;;;;;;5067507;28;20419;-67
2022/02/14 05:04:59;;;;;;;6.17;2.67;;;13.20;91.80;;;;;;5067724;28;20407;-66
2022/02/14 05:07:25;;;;;;;9.38;3.20;;;13.20;91.80;;;;;;5066490;28;20403;-68
2022/02/14 05:09:50;;;;;;;7.00;2.90;;;13.20;92.00;;;;;;5067063;28;20493;-68
2022/02/14 05:12:16;;;;;;;8.23;3.17;;;13.20;92.20;;;;;;5068089;28;20411;-67
2022/02/14 05:14:41;;;;;;;11.10;3.15;;;13.20;92.10;;;;;;5068740;28;20407;-67
2022/02/14 05:17:07;;;;;;;6.95;2.97;;;13.20;92.10;;;;;;5068043;28;20956;-68
2022/02/14 05:19:33;;;;;;;8.13;3.00;;;13.20;92.10;;;;;;5050574;28;20403;-68
2022/02/14 05:21:59;;;;;;;9.65;3.03;;;13.20;92.20;;;;;;5050452;28;20740;-66
2022/02/14 05:24:24;;;;;;;7.53;3.00;;;13.20;92.20;;;;;;5066383;28;20518;-67
2022/02/14 05:26:50;;;;;;;8.07;3.05;;;13.10;92.50;;;;;;5068801;28;21083;-68
2022/02/14 05:29:16;;;;;;;8.48;3.15;;;13.10;92.30;;;;;;5066589;28;20568;-66
2022/02/14 05:31:41;;;;;;;9.17;3.20;;;13.20;92.30;;;;;;5068553;28;20439;-68
2022/02/14 05:34:07;;;;;;;7.07;2.80;;;13.10;92.30;;;;;;5064792;28;20439;-68
2022/02/14 05:36:32;;;;;;;7.53;2.67;;;13.10;92.40;;;;;;5062314;28;20879;-68
2022/02/14 05:38:58;;;;;;;8.37;3.00;;;13.10;92.40;;;;;;5067457;28;20418;-66
2022/02/14 05:41:24;;;;;;;10.30;2.80;;;13.10;92.30;;;;;;5067206;28;20423;-66
2022/02/14 05:43:49;;;;;;;7.35;2.92;;;13.10;92.50;;;;;;5031250;28;20479;-66
2022/02/14 05:46:15;;;;;;;10.33;2.90;;;13.10;92.60;;;;;;5068103;28;20465;-67
2022/02/14 05:48:46;;;;;;;8.18;3.20;;;13.10;92.70;;;;;;5066405;28;20416;-66
2022/02/14 05:51:13;;;;;;;7.50;2.88;;;13.10;92.60;;;;;;5049696;28;20980;-67
2022/02/14 05:53:39;;;;;;;8.85;2.95;;;13.10;92.70;;;;;;5066791;28;20490;-66
2022/02/14 05:56:06;;;;;;;8.57;3.17;;;13.10;92.80;;;;;;5064580;28;20421;-66
2022/02/14 05:58:33;;;;;;;8.25;3.08;;;13.10;93.00;;;;;;5061723;28;20933;-67
2022/02/14 06:00:59;;;;;;;9.13;3.10;;;13.00;93.10;;;;;;5067399;28;20824;-64
2022/02/14 06:03:24;;;;;;;8.37;3.10;;;13.00;93.30;;;;;;5066278;28;20497;-67
2022/02/14 06:05:50;;;;;;;5.07;3.00;;;13.00;93.50;;;;;;5050187;28;20498;-66
2022/02/14 06:08:16;;;;;;;7.40;2.77;;;13.00;94.10;;;;;;5066529;28;20491;-68
2022/02/14 06:10:41;;;;;;;5.77;2.20;;;12.90;94.70;;;;;;5065444;28;20407;-66
2022/02/14 06:13:07;;;;;;;7.80;2.03;;;12.80;95.00;;;;;;5048978;28;20419;-66
2022/02/14 06:15:32;;;;;;;5.70;2.00;;;12.70;95.70;;;;;;5067162;28;20522;-63
2022/02/14 06:17:58;;;;;;;6.30;1.93;;;12.60;96.10;;;;;;5063662;28;20411;-65
2022/02/14 06:20:24;;;;;;;4.53;1.90;;;12.40;96.50;;;;;;5066959;28;20414;-66
2022/02/14 06:22:49;;;;;;;6.13;2.10;;;12.40;97.00;;;;;;5064895;28;20794;-65
2022/02/14 06:25:15;;;;;;;8.33;2.70;;;12.30;97.40;;;;;;5065927;28;20926;-66
2022/02/14 06:27:41;;;;;;;9.70;2.90;;;12.30;97.90;;;;;;5065947;28;20495;-66
2022/02/14 06:30:07;;;;;;;6.90;2.60;;;12.20;98.60;;;;;;5065141;28;20419;-64
2022/02/14 06:32:33;;;;;;;7.05;2.70;;;12.10;99.10;;;;;;5061033;28;20788;-64
2022/02/14 06:34:59;;;;;;;7.85;3.15;;;12.00;99.80;;;;;;5060596;28;20462;-65
2022/02/14 06:37:24;;;;;;;11.13;3.30;;;11.90;99.90;;;;;;5059752;28;20415;-65
2022/02/14 06:39:50;;;;;;;9.55;3.33;;;11.80;99.90;;;;;;5064326;28;21801;-64
2022/02/14 06:42:16;;;;;;;11.20;3.47;;;11.70;99.90;;;;;;5077927;28;20990;-66
2022/02/14 06:44:42;;;;;;;11.18;3.35;;;11.60;99.90;;;;;;5062310;28;20387;-65
2022/02/14 06:47:08;;;;;;;11.73;2.97;;;11.50;99.90;;;;;;5047970;28;20934;-65
2022/02/14 06:49:33;;;;;;;19.20;3.70;;;11.40;99.90;;;;;;5067033;28;20779;-64
2022/02/14 06:51:59;;;;;;;12.80;3.53;;;11.30;99.90;;;;;;5066851;28;20403;-65
2022/02/14 06:54:25;;;;;;;12.05;2.92;;;11.20;99.90;;;;;;5066445;28;20641;-67
2022/02/14 06:56:50;;;;;;;14.73;2.63;;;11.10;99.90;;;;;;5064855;28;21293;-65
2022/02/14 06:59:19;;;;;;;16.52;2.95;;;11.00;99.90;;;;;;5066056;28;20418;-67
2022/02/14 07:01:45;;;;;;;20.42;2.90;;;10.90;99.90;;;;;;5048502;28;20497;-64
2022/02/14 07:04:10;;;;;;;18.67;3.10;;;10.90;99.90;;;;;;5065985;28;20426;-65
2022/02/14 07:06:36;;;;;;;22.50;2.97;;;10.80;99.90;;;;;;5066810;28;20415;-65
2022/02/14 07:09:03;;;;;;;14.75;2.65;;;10.80;99.90;;;;;;5065077;28;20415;-66
2022/02/14 07:11:29;;;;;;;16.75;3.15;;;10.80;99.90;;;;;;5066590;28;20390;-65
2022/02/14 07:13:54;;;;;;;11.55;2.35;;;10.70;99.90;;;;;;5065010;28;20945;-66
2022/02/14 07:16:20;;;;;;;13.60;2.53;;;10.70;99.90;;;;;;5068452;28;20462;-65
2022/02/14 07:18:45;;;;;;;14.67;2.70;;;10.60;99.90;;;;;;5050208;28;20502;-65
2022/02/14 07:21:11;;;;;;;17.30;2.30;;;10.60;99.90;;;;;;5068273;28;20506;-65
2022/02/14 07:23:37;;;;;;;17.63;2.57;;;10.60;99.90;;;;;;5068414;28;20528;-66
2022/02/14 07:26:02;;;;;;;19.73;3.05;;;10.60;99.90;;;;;;5069420;28;20420;-66
2022/02/14 07:28:28;;;;;;;21.33;2.97;;;10.60;99.90;;;;;;5066646;28;20415;-64
2022/02/14 07:30:54;;;;;;;19.37;2.70;;;10.60;99.90;;;;;;5069230;28;20923;-64
2022/02/14 07:33:20;;;;;;;15.30;2.38;;;10.50;99.90;;;;;;5069352;28;20564;-66
2022/02/14 07:35:47;;;;;;;21.00;2.60;;;10.20;99.90;;;;;;5069326;28;20663;-64
2022/02/14 07:38:12;;;;;;;19.65;2.92;;;9.90;99.90;;;;;;5050647;28;20187;-64
2022/02/14 07:40:38;;;;;;;30.92;3.35;;;9.80;99.90;;;;;;5069548;28;20271;-65
2022/02/14 07:43:04;;;;;;;21.33;2.30;;;9.70;99.90;;;;;;5069350;28;20186;-64
2022/02/14 07:45:30;;;;;;;18.50;2.97;;;9.60;99.90;;;;;;5052887;28;20190;-67
2022/02/14 07:47:56;;;;;;;19.48;2.10;;;9.50;99.90;;;;;;5069431;28;20733;-66
2022/02/14 07:50:23;;;;;;;20.23;2.10;;;9.50;99.90;;;;;;5069966;28;20186;-65
2022/02/14 07:52:50;;;;;;;14.75;1.90;;;9.50;99.90;;;;;;5068689;28;20209;-66
2022/02/14 07:55:16;;;;;;;15.65;2.00;;;9.50;99.90;;;;;;5069589;28;20218;-66
2022/02/14 07:57:42;;;;;;;17.70;2.40;;;9.50;99.90;;;;;;5065988;28;20415;-66
2022/02/14 08:00:09;;;;;;;16.33;2.25;;;9.90;99.90;;;;;;5069540;28;20781;-65
2022/02/14 08:02:40;;;;;;;16.50;2.55;;;10.20;99.90;;;;;;5069138;28;20412;-65
2022/02/14 08:05:07;;;;;;;16.60;2.47;;;10.40;99.90;;;;;;5069010;28;20422;-66
2022/02/14 08:07:33;;;;;;;15.85;2.25;;;10.40;99.90;;;;;;5066962;28;20756;-66
2022/02/14 08:09:59;;;;;;;12.32;2.40;;;10.50;99.90;;;;;;5048670;28;20828;-66
2022/02/14 08:12:25;;;;;;;14.52;1.67;;;10.50;99.90;;;;;;5069149;28;20265;-65
2022/02/14 08:14:52;;;;;;;16.73;2.15;;;10.20;99.90;;;;;;5070375;28;20252;-67
2022/02/14 08:17:18;;;;;;;12.00;1.85;;;10.00;99.90;;;;;;5067768;28;20265;-65
2022/02/14 08:19:43;;;;;;;12.50;1.80;;;9.80;99.90;;;;;;5070739;28;20293;-66
2022/02/14 08:22:09;;;;;;;12.60;2.20;;;9.80;99.90;;;;;;5067257;28;20194;-63
2022/02/14 08:24:35;;;;;;;13.05;1.95;;;9.70;99.90;;;;;;5069473;28;20273;-65
2022/02/14 08:27:03;;;;;;;;;;;9.80;99.90;;;;;;5050987;28;20032;-66
2022/02/14 08:29:29;;;;;;;;;;;10.10;99.90;;;;;;5066882;28;20025;-67
2022/02/14 08:31:55;;;;;;;;;;;10.40;99.90;;;;;;5069784;28;20007;-66
2022/02/14 08:34:20;;;;;;;;;;;10.50;99.90;;;;;;5070469;28;20306;-66
2022/02/14 08:36:46;;;;;;;;;;;10.50;99.90;;;;;;5071608;28;19923;-66
2022/02/14 08:39:13;;;;;;;;;;;10.50;99.90;;;;;;5069682;28;19912;-66
2022/02/14 08:41:38;;;;;;;14.07;2.78;;;10.40;99.90;;;;;;5068882;28;20196;-65
2022/02/14 08:44:05;;;;;;;15.52;2.50;;;10.40;99.90;;;;;;5069049;28;20423;-66
2022/02/14 08:46:31;;;;;;;17.25;2.97;;;10.80;99.90;;;;;;5070850;28;20179;-65
2022/02/14 08:48:56;;;;;;;19.13;2.42;;;10.60;99.90;;;;;;5069840;28;20185;-66
2022/02/14 08:51:23;;;;;;;12.65;2.58;;;10.40;99.90;;;;;;5070477;28;20259;-66
2022/02/14 08:53:50;;;;;;;17.23;2.33;;;10.30;99.90;;;;;;5052023;28;20603;-66
2022/02/14 08:56:17;;;;;;;10.77;2.30;;;10.30;99.90;;;;;;5070147;28;20229;-65
2022/02/14 08:58:42;;;;;;;18.23;2.50;;;10.20;99.90;;;;;;5069292;28;20572;-65
2022/02/14 09:01:11;;;;;;;14.23;2.75;;;10.10;99.90;;;;;;5070798;28;20183;-65
2022/02/14 09:03:39;;;;;;;18.25;3.05;;;10.00;99.90;;;;;;5066940;28;20187;-65
2022/02/14 09:06:05;;;;;;;16.63;2.78;;;10.00;99.90;;;;;;5070630;28;20197;-66
2022/02/14 09:08:31;;;;;;;19.58;2.60;;;9.90;99.90;;;;;;5067658;28;20187;-66
2022/02/14 09:10:59;;;;;;;19.33;2.97;;;9.90;99.90;;;;;;5069496;28;20244;-66
2022/02/14 09:13:25;;;;;;;18.73;2.92;;;9.90;99.90;;;;;;5068599;28;20183;-67
2022/02/14 09:15:51;;;;;;;13.77;2.75;;;9.90;99.90;;;;;;5069660;28;20696;-65
2022/02/14 09:18:16;;;;;;;26.27;3.42;;;9.90;99.90;;;;;;5065670;28;20266;-65
2022/02/14 09:20:42;;;;;;;18.40;2.80;;;9.90;99.90;;;;;;5065979;28;20207;-65
2022/02/14 09:23:08;;;;;;;11.50;2.40;;;9.90;99.90;;;;;;5067164;28;20182;-65
2022/02/14 09:25:34;;;;;;;19.52;2.40;;;9.80;99.90;;;;;;5069361;28;20182;-66
2022/02/14 09:28:01;;;;;;;14.70;2.47;;;9.90;99.90;;;;;;5068781;28;20213;-68
2022/02/14 09:30:27;;;;;;;17.63;2.60;;;9.90;99.90;;;;;;5069070;28;20678;-67
2022/02/14 09:32:53;;;;;;;13.30;2.75;;;9.90;99.90;;;;;;5068191;28;20224;-66
2022/02/14 09:35:26;;;;;;;16.98;3.03;;;9.90;99.90;;;;;;5068057;28;20226;-66
2022/02/14 09:38:03;;;;;;;14.52;2.22;;;10.00;99.90;;;;;;5066980;28;20231;-66
2022/02/14 09:40:30;;;;;;;9.80;2.53;;;9.90;99.90;;;;;;5069198;28;20226;-66
2022/02/14 09:42:59;;;;;;;10.65;2.67;;;9.90;99.90;;;;;;5068725;28;20607;-66
2022/02/14 09:45:26;;;;;;;17.80;2.63;;;10.00;99.90;;;;;;5069670;28;20244;-66
2022/02/14 09:48:03;;;;;;;19.30;2.90;;;10.00;99.90;;;;;;5066206;28;20198;-66
2022/02/14 09:50:31;;;;;;;17.25;3.40;;;10.00;99.90;;;;;;5064813;28;20411;-67
2022/02/14 09:52:58;;;;;;;20.02;3.00;;;10.40;99.90;;;;;;5064668;28;20427;-65
2022/02/14 09:55:24;;;;;;;15.52;2.80;;;10.70;99.90;;;;;;5065150;28;20200;-65
2022/02/14 09:57:50;;;;;;;18.10;2.90;;;10.40;99.90;;;;;;5068206;28;20217;-66
2022/02/14 10:00:16;;;;;;;19.70;2.47;;;10.20;99.90;;;;;;5065123;28;20206;-67
2022/02/14 10:02:42;;;;;;;21.65;3.15;;;10.10;99.90;;;;;;5066475;28;20179;-66
2022/02/14 10:05:14;;;;;;;19.25;2.50;;;10.10;99.90;;;;;;5050331;28;20189;-68
2022/02/14 10:07:44;;;;;;;21.38;2.38;;;10.10;99.90;;;;;;5067028;28;20708;-69
2022/02/14 10:10:22;;;;;;;13.15;2.25;;;10.10;99.90;;;;;;5067594;28;20213;-69
2022/02/14 10:12:55;;;;;;;13.05;2.55;;;10.20;99.90;;;;;;5050347;28;20182;-69
2022/02/14 10:15:22;;;;;;;15.35;2.83;;;10.20;99.90;;;;;;5068236;28;20765;-66
2022/02/14 10:17:54;;;;;;;20.08;3.25;;;10.70;99.90;;;;;;5066993;28;20400;-68
2022/02/14 10:20:21;;;;;;;15.57;2.90;;;11.10;99.90;;;;;;5067971;28;20414;-68
2022/02/14 10:23:06;;;;;;;16.02;3.15;;;11.30;99.90;;;;;;5067028;28;20415;-68
2022/02/14 10:25:44;;;;;;;23.48;3.05;;;11.40;99.90;;;;;;5068371;28;20411;-68
2022/02/14 10:28:22;;;;;;;20.58;3.30;;;11.40;99.90;;;;;;5067315;28;20416;-68
2022/02/14 10:31:03;;;;;;;17.33;2.97;;;11.40;99.90;;;;;;5068545;28;20182;-68
2022/02/14 10:33:48;;;;;;;16.88;2.67;;;11.00;99.90;;;;;;5049597;28;20191;-68
2022/02/14 10:36:26;;;;;;;17.40;2.78;;;10.70;99.90;;;;;;5068338;28;20733;-68
2022/02/14 10:38:52;;;;;;;14.65;2.55;;;10.50;99.90;;;;;;5067878;28;20233;-68
2022/02/14 10:41:18;;;;;;;21.55;2.83;;;10.30;99.90;;;;;;5067491;28;20178;-68
2022/02/14 10:43:44;;;;;;;17.10;2.58;;;10.20;99.90;;;;;;5048913;28;20269;-68
2022/02/14 10:46:22;;;;;;;16.58;2.55;;;10.20;99.90;;;;;;5067252;28;20664;-68
2022/02/14 10:48:53;;;;;;;20.38;2.65;;;10.10;99.90;;;;;;5067679;28;20183;-68
2022/02/14 10:51:19;;;;;;;14.43;2.33;;;10.10;99.90;;;;;;5054638;28;20220;-68
2022/02/14 10:53:49;;;;;;;18.50;2.45;;;10.10;99.90;;;;;;5072198;28;20556;-68
2022/02/14 10:56:18;;;;;;;17.13;2.53;;;10.10;99.90;;;;;;5071634;28;20202;-68
2022/02/14 10:58:45;;;;;;;16.20;2.50;;;10.10;99.90;;;;;;5070891;28;20643;-68
2022/02/14 11:01:14;;;;;;;15.05;2.58;;;10.10;99.90;;;;;;5071679;28;20174;-68
2022/02/14 11:03:40;;;;;;;10.77;1.85;;;10.20;99.90;;;;;;5072376;28;20179;-68
2022/02/14 11:06:07;;;;;;;17.15;2.47;;;10.30;99.90;;;;;;5071036;28;20186;-68
2022/02/14 11:08:38;;;;;;;15.65;2.10;;;10.70;99.90;;;;;;5071775;28;20182;-66
2022/02/14 11:11:05;;;;;;;14.20;2.70;;;11.00;99.90;;;;;;5072868;28;20217;-68
2022/02/14 11:13:31;;;;;;;;;;;11.30;99.90;;;;;;5070709;28;20063;-68
2022/02/14 11:16:00;;;;;;;;;;;11.60;99.90;;;;;;5071005;28;20508;-68
2022/02/14 11:18:31;;;;;;;;;;;12.00;99.90;;;;;;5071763;28;19998;-68
2022/02/14 11:20:59;;;;;;;;;;;12.20;99.90;;;;;;5053581;28;19919;-67
2022/02/14 11:23:27;;;;;;;;;;;12.20;99.90;;;;;;5086570;28;19908;-69
2022/02/14 11:25:56;;;;;;;;;;;12.40;99.90;;;;;;5072310;28;19908;-69
2022/02/14 11:28:28;;;;;;;;;;;12.70;99.90;;;;;;5071605;28;19955;-69
2022/02/14 11:31:14;;;;;;;;;;;12.90;99.90;;;;;;5071997;28;19962;-70
2022/02/14 11:33:40;;;;;;;;;;;12.80;99.90;;;;;;5053842;28;19970;-69
2022/02/14 11:36:07;;;;;;;;;;;12.90;99.90;;;;;;5072638;28;19920;-69
2022/02/14 11:38:40;;;;;;;17.00;2.35;;;13.10;99.90;;;;;;5069667;28;20196;-69
2022/02/14 11:41:41;;;;;;;16.63;2.38;;;13.40;99.90;;;;;;5069564;28;20982;-69
2022/02/14 11:44:21;;;;;;;11.95;2.30;;;14.60;94.20;;;;;;5069711;28;20420;-68
2022/02/14 11:47:06;;;;;;;15.77;2.47;;;15.20;90.50;;;;;;5070952;28;20884;-67
2022/02/14 11:49:45;;;;;;;10.85;2.20;;;15.50;89.00;;;;;;5070643;28;20481;-70
2022/02/14 11:52:39;;;;;;;10.90;2.00;;;16.00;85.90;;;;;;5067422;28;20508;-69
2022/02/14 11:55:08;;;;;;;13.15;2.20;;;16.40;81.60;;;;;;5066911;28;20472;-68
2022/02/14 11:57:46;;;;;;;13.17;2.07;;;16.40;80.40;;;;;;5069475;28;20473;-68
2022/02/14 12:00:15;;;;;;;16.08;2.50;;;16.50;79.30;;;;;;5050397;28;20411;-69
2022/02/14 12:02:53;;;;;;;11.23;2.10;;;16.50;78.80;;;;;;5068850;28;20992;-68
2022/02/14 12:05:42;;;;;;;9.88;2.20;;;16.70;77.70;;;;;;5052668;28;20422;-69
2022/02/14 12:08:08;;;;;;;11.27;1.75;;;17.00;76.40;;;;;;5068717;28;20423;-70
2022/02/14 12:10:47;;;;;;;8.67;1.80;;;17.20;73.10;;;;;;5066320;28;20484;-68
2022/02/14 12:13:15;;;;;;;11.73;2.03;;;17.30;71.80;;;;;;5068190;28;20456;-70
2022/02/14 12:21:10;;;;;;;9.73;2.03;;;16.60;74.00;;;;;;5070128;28;20410;-71
2022/02/14 12:23:44;;;;;;;10.75;1.90;;;16.60;72.00;;;;;;5067216;28;20407;-70
2022/02/14 12:26:18;;;;;;;10.02;2.03;;;16.50;73.60;;;;;;5069368;28;20461;-70
2022/02/14 12:28:46;;;;;;;10.05;1.90;;;16.60;73.10;;;;;;5067124;28;20447;-69
2022/02/14 12:31:13;;;;;;;10.23;1.80;;;16.80;71.80;;;;;;5050621;28;20407;-70
2022/02/14 12:33:39;;;;;;;12.50;2.10;;;16.90;71.80;;;;;;5068840;28;20457;-70
2022/02/14 12:36:10;;;;;;;13.68;2.30;;;17.00;71.30;;;;;;5069821;28;20816;-71
2022/02/14 12:38:38;;;;;;;15.38;2.30;;;17.20;70.60;;;;;;5068491;28;20434;-69
2022/02/14 12:41:06;;;;;;;12.60;2.33;;;17.50;70.30;;;;;;5068211;28;20412;-72
2022/02/14 12:43:39;;;;;;;11.80;2.30;;;17.50;70.00;;;;;;5067601;28;20407;-70
2022/02/14 12:46:08;;;;;;;17.10;2.90;;;17.50;69.20;;;;;;5070076;28;20403;-70
2022/02/14 12:48:39;;;;;;;16.30;2.30;;;17.20;70.00;;;;;;5068242;28;20447;-70
2022/02/14 12:51:06;;;;;;;12.25;2.42;;;16.90;70.70;;;;;;5069202;28;20485;-72
2022/02/14 12:53:35;;;;;;;15.88;2.45;;;16.70;71.90;;;;;;5068855;28;20427;-71
2022/02/14 12:56:21;;;;;;;19.50;2.60;;;16.50;72.20;;;;;;5051533;28;20422;-72